Time,TemperatureF,DewpointF,PressureIn,WindDirection,WindDirectionDegrees,WindSpeedMPH,WindSpeedGustMPH,Humidity,HourlyPrecipIn,Conditions,Clouds,dailyrainin,SoftwareType,DateUTC
2013-07-20 01:32:00,78.0,73.0,29.88,SW,232,0.0,2.0,84,0.00,,,0.00,,2013-07-20 05:32:00,
2013-07-20 01:52:00,77.0,72.0,29.87,SW,223,0.0,3.0,84,0.00,,,0.00,,2013-07-20 05:52:00,
2013-07-20 02:32:00,77.0,72.0,29.87,SW,224,0.0,2.0,85,0.00,,,0.00,,2013-07-20 06:32:00,
2013-07-20 02:43:00,77.0,72.0,29.87,SW,225,0.0,2.0,85,0.00,,,0.00,,2013-07-20 06:43:00,
2013-07-20 02:52:00,77.0,72.0,29.87,SW,226,0.0,2.0,86,0.00,,,0.00,,2013-07-20 06:52:00,
2013-07-20 03:01:00,76.0,72.0,29.86,SW,226,0.0,2.0,86,0.00,,,0.00,,2013-07-20 07:01:00,
2013-07-20 03:12:00,76.0,72.0,29.86,WSW,240,0.0,3.0,87,0.00,,,0.00,,2013-07-20 07:12:00,
2013-07-20 03:22:00,76.0,72.0,29.85,SW,225,0.0,3.0,87,0.00,,,0.00,,2013-07-20 07:22:00,
2013-07-20 03:33:00,76.0,72.0,29.85,WSW,246,0.0,3.0,87,0.00,,,0.00,,2013-07-20 07:33:00,
2013-07-20 03:44:00,76.0,72.0,29.85,SW,232,0.0,5.0,87,0.00,,,0.00,,2013-07-20 07:44:00,
2013-07-20 03:53:00,76.0,72.0,29.84,WSW,240,0.0,3.0,87,0.00,,,0.00,,2013-07-20 07:53:00,
2013-07-20 04:02:00,76.0,72.0,29.84,SW,217,0.0,3.0,87,0.00,,,0.00,,2013-07-20 08:02:00,
2013-07-20 04:11:00,76.0,72.0,29.84,SW,217,0.0,2.0,87,0.00,,,0.00,,2013-07-20 08:11:00,
2013-07-20 04:22:00,76.0,72.0,29.84,SW,217,0.0,3.0,87,0.00,,,0.00,,2013-07-20 08:22:00,
2013-07-20 04:32:00,76.0,72.0,29.84,SW,219,0.0,2.0,87,0.00,,,0.00,,2013-07-20 08:32:00,
2013-07-20 04:44:00,76.0,72.0,29.83,SW,235,0.0,5.0,87,0.00,,,0.00,,2013-07-20 08:44:00,
2013-07-20 04:52:00,76.0,72.0,29.83,SW,236,0.0,2.0,87,0.00,,,0.00,,2013-07-20 08:52:00,
2013-07-20 05:02:00,76.0,72.0,29.83,SW,224,0.0,3.0,87,0.00,,,0.00,,2013-07-20 09:02:00,
2013-07-20 05:11:00,76.0,72.0,29.83,SW,235,0.0,4.0,87,0.00,,,0.00,,2013-07-20 09:11:00,
2013-07-20 05:43:00,76.0,72.0,29.83,SW,234,0.0,3.0,88,0.00,,,0.00,,2013-07-20 09:43:00,
2013-07-20 05:53:00,76.0,72.0,29.83,SW,228,0.0,4.0,88,0.00,,,0.00,,2013-07-20 09:53:00,
2013-07-20 06:01:00,75.0,71.0,29.83,SW,229,0.0,3.0,88,0.00,,,0.00,,2013-07-20 10:01:00,
2013-07-20 06:11:00,75.0,71.0,29.82,SW,227,0.0,4.0,88,0.00,,,0.00,,2013-07-20 10:11:00,
2013-07-20 06:22:00,75.0,71.0,29.83,SW,236,0.0,6.0,88,0.00,,,0.00,,2013-07-20 10:22:00,
2013-07-20 06:52:00,75.0,72.0,29.84,SW,232,0.0,4.0,89,0.00,,,0.00,,2013-07-20 10:52:00,
2013-07-20 07:02:00,75.0,72.0,29.84,WSW,237,1.0,5.0,89,0.00,,,0.00,,2013-07-20 11:02:00,
2013-07-20 07:43:00,75.0,72.0,29.84,SW,232,0.0,3.0,91,0.00,,,0.00,,2013-07-20 11:43:00,
2013-07-20 08:52:00,76.0,72.0,29.85,SW,229,1.0,6.0,88,0.00,,,0.00,,2013-07-20 12:52:00,
2013-07-20 09:43:00,78.0,73.0,29.85,SW,229,0.0,5.0,84,0.00,,,0.00,,2013-07-20 13:43:00,
2013-07-20 09:53:00,79.0,73.0,29.86,SW,225,1.0,6.0,83,0.00,,,0.00,,2013-07-20 13:53:00,
2013-07-20 10:32:00,80.0,74.0,29.86,WSW,238,0.0,4.0,82,0.00,,,0.00,,2013-07-20 14:32:00,
2013-07-20 10:53:00,80.0,74.0,29.86,SW,227,1.0,7.0,81,0.00,,,0.00,,2013-07-20 14:53:00,
2013-07-20 11:01:00,81.0,75.0,29.86,SW,223,0.0,6.0,81,0.00,,,0.00,,2013-07-20 15:01:00,
2013-07-20 11:11:00,81.0,75.0,29.86,WSW,237,0.0,5.0,81,0.00,,,0.00,,2013-07-20 15:11:00,
2013-07-20 11:33:00,82.0,75.0,29.86,SW,219,0.0,4.0,80,0.00,,,0.00,,2013-07-20 15:33:00,
2013-07-20 11:44:00,82.0,74.0,29.86,SSW,212,1.0,6.0,78,0.00,,,0.00,,2013-07-20 15:44:00,
2013-07-20 11:53:00,82.0,75.0,29.86,SW,224,0.0,5.0,79,0.00,,,0.00,,2013-07-20 15:53:00,
2013-07-20 12:01:00,83.0,75.0,29.86,SSW,193,0.0,6.0,78,0.00,,,0.00,,2013-07-20 16:01:00,
2013-07-20 12:11:00,83.0,75.0,29.86,SW,222,0.0,4.0,77,0.00,,,0.00,,2013-07-20 16:11:00,
2013-07-20 12:22:00,83.0,75.0,29.86,SSW,207,0.0,4.0,77,0.00,,,0.00,,2013-07-20 16:22:00,
2013-07-20 12:32:00,84.0,77.0,29.86,SW,230,0.0,3.0,80,0.00,,,0.00,,2013-07-20 16:32:00,
2013-07-20 12:43:00,84.0,76.0,29.86,SW,215,0.0,4.0,78,0.00,,,0.00,,2013-07-20 16:43:00,
2013-07-20 12:52:00,85.0,77.0,29.86,SSE,156,0.0,5.0,76,0.00,,,0.00,,2013-07-20 16:52:00,
2013-07-20 13:02:00,85.0,77.0,29.85,South,181,0.0,5.0,76,0.00,,,0.00,,2013-07-20 17:02:00,
2013-07-20 13:11:00,85.0,77.0,29.85,SSW,205,0.0,4.0,77,0.00,,,0.00,,2013-07-20 17:11:00,
2013-07-20 13:22:00,86.0,77.0,29.85,SSE,165,2.0,10.0,75,0.00,,,0.00,,2013-07-20 17:22:00,
2013-07-20 13:32:00,87.0,77.0,29.84,SSE,161,0.0,5.0,73,0.00,,,0.00,,2013-07-20 17:32:00,
2013-07-20 13:43:00,87.0,77.0,29.83,SSE,166,1.0,6.0,73,0.00,,,0.00,,2013-07-20 17:43:00,
2013-07-20 13:53:00,87.0,76.0,29.84,SSE,159,1.0,9.0,71,0.00,,,0.00,,2013-07-20 17:53:00,
2013-07-20 14:01:00,86.0,75.0,29.84,SSE,168,0.0,6.0,71,0.00,,,0.00,,2013-07-20 18:01:00,
2013-07-20 14:12:00,87.0,77.0,29.85,SE,134,0.0,7.0,72,0.00,,,0.00,,2013-07-20 18:12:00,
2013-07-20 14:24:00,86.0,76.0,29.87,SSE,156,0.0,2.0,72,0.00,,,0.00,,2013-07-20 18:24:00,
2013-07-20 14:36:00,81.0,71.0,29.88,WSW,238,2.0,13.0,71,0.00,,,0.00,,2013-07-20 18:36:00,
2013-07-20 14:46:00,77.0,70.0,29.92,East,88,0.0,3.0,80,0.00,,,0.00,,2013-07-20 18:46:00,
2013-07-20 15:43:00,68.0,68.0,29.88,ENE,58,0.0,2.0,99,0.26,,,0.26,,2013-07-20 19:43:00,
2013-07-20 15:54:00,68.0,68.0,29.86,ENE,58,0.0,1.0,99,0.26,,,0.27,,2013-07-20 19:54:00,
2013-07-20 16:06:00,68.0,68.0,29.85,ENE,58,0.0,1.0,99,0.16,,,0.27,,2013-07-20 20:06:00,
2013-07-20 16:14:00,68.0,68.0,29.83,SE,131,0.0,2.0,99,0.08,,,0.27,,2013-07-20 20:14:00,
2013-07-20 16:24:00,68.0,68.0,29.85,West,269,0.0,3.0,99,0.04,,,0.27,,2013-07-20 20:24:00,
2013-07-20 16:33:00,68.0,68.0,29.84,West,269,0.0,2.0,99,0.03,,,0.28,,2013-07-20 20:33:00,
2013-07-20 16:45:00,68.0,68.0,29.83,South,175,0.0,4.0,99,0.03,,,0.29,,2013-07-20 20:45:00,
2013-07-20 16:56:00,68.0,68.0,29.82,SSE,159,0.0,1.0,99,0.02,,,0.29,,2013-07-20 20:56:00,
2013-07-20 17:05:00,68.0,68.0,29.84,SSE,159,0.0,1.0,99,0.02,,,0.29,,2013-07-20 21:05:00,
2013-07-20 17:14:00,68.0,68.0,29.85,SSW,194,0.0,3.0,99,0.02,,,0.29,,2013-07-20 21:14:00,
2013-07-20 17:27:00,68.0,68.0,29.85,WSW,257,0.0,3.0,99,0.02,,,0.29,,2013-07-20 21:27:00,
2013-07-20 17:34:00,68.0,68.0,29.84,WSW,251,0.0,3.0,99,0.01,,,0.29,,2013-07-20 21:34:00,
2013-07-20 17:55:00,68.0,68.0,29.83,SSW,206,0.0,0.0,100,0.00,,,0.29,,2013-07-20 21:55:00,
2013-07-20 18:06:00,68.0,68.0,29.83,SSW,206,0.0,2.0,100,0.01,,,0.30,,2013-07-20 22:06:00,
2013-07-20 18:16:00,69.0,69.0,29.83,SSE,161,0.0,4.0,100,0.02,,,0.31,,2013-07-20 22:16:00,
2013-07-20 18:25:00,69.0,69.0,29.84,SSE,161,0.0,1.0,100,0.03,,,0.32,,2013-07-20 22:25:00,
2013-07-20 18:34:00,69.0,69.0,29.83,SSE,161,0.0,2.0,100,0.04,,,0.33,,2013-07-20 22:34:00,
2013-07-20 18:47:00,69.0,69.0,29.85,SSE,161,0.0,2.0,100,0.05,,,0.34,,2013-07-20 22:47:00,
2013-07-20 18:55:00,68.0,68.0,29.84,SSW,197,0.0,2.0,100,0.06,,,0.35,,2013-07-20 22:55:00,
2013-07-20 19:17:00,68.0,68.0,29.83,SSE,163,0.0,3.0,100,0.08,,,0.39,,2013-07-20 23:17:00,
2013-07-20 19:27:00,68.0,68.0,29.85,SSE,163,0.0,1.0,100,0.08,,,0.40,,2013-07-20 23:27:00,
2013-07-20 19:36:00,68.0,68.0,29.84,SSE,161,0.0,4.0,100,0.08,,,0.41,,2013-07-20 23:36:00,
2013-07-20 19:44:00,68.0,68.0,29.83,ESE,108,1.0,8.0,100,0.09,,,0.43,,2013-07-20 23:44:00,
2013-07-20 19:55:00,68.0,68.0,29.85,SSE,158,1.0,7.0,100,0.09,,,0.44,,2013-07-20 23:55:00,
2013-07-20 20:17:00,68.0,68.0,29.82,SSE,152,2.0,9.0,100,0.08,,,0.47,,2013-07-21 00:17:00,
2013-07-20 20:23:00,68.0,68.0,29.83,SSE,159,2.0,8.0,100,0.09,,,0.49,,2013-07-21 00:23:00,
2013-07-20 20:44:00,68.0,68.0,29.85,WNW,284,1.0,4.0,100,0.07,,,0.50,,2013-07-21 00:44:00,
2013-07-20 20:55:00,68.0,68.0,29.86,WNW,284,0.0,1.0,100,0.07,,,0.51,,2013-07-21 00:55:00,
2013-07-20 21:06:00,68.0,68.0,29.86,WNW,284,0.0,1.0,100,0.05,,,0.51,,2013-07-21 01:06:00,
2013-07-20 21:12:00,68.0,68.0,29.87,WNW,284,0.0,3.0,100,0.04,,,0.51,,2013-07-21 01:12:00,
2013-07-20 21:27:00,68.0,68.0,29.86,WNW,284,0.0,1.0,100,0.02,,,0.51,,2013-07-21 01:27:00,
2013-07-20 21:36:00,68.0,68.0,29.86,WNW,284,0.0,2.0,100,0.01,,,0.51,,2013-07-21 01:36:00,
2013-07-20 21:56:00,68.0,68.0,29.86,NNE,26,0.0,0.0,100,0.00,,,0.51,,2013-07-21 01:56:00,
2013-07-20 22:06:00,68.0,68.0,29.87,NNE,26,0.0,2.0,100,0.00,,,0.51,,2013-07-21 02:06:00,
2013-07-20 22:17:00,67.0,67.0,29.87,NNE,25,0.0,3.0,100,0.00,,,0.51,,2013-07-21 02:17:00,
2013-07-20 22:26:00,67.0,67.0,29.88,NNW,327,0.0,2.0,100,0.00,,,0.51,,2013-07-21 02:26:00,
2013-07-20 22:36:00,67.0,67.0,29.87,NNW,327,0.0,1.0,100,0.00,,,0.51,,2013-07-21 02:36:00,
2013-07-20 22:44:00,67.0,67.0,29.87,NNW,327,0.0,2.0,100,0.00,,,0.51,,2013-07-21 02:44:00,
2013-07-20 22:54:00,67.0,67.0,29.87,NNW,327,0.0,2.0,100,0.00,,,0.51,,2013-07-21 02:54:00,
2013-07-20 23:04:00,67.0,67.0,29.87,NNW,327,0.0,2.0,100,0.00,,,0.51,,2013-07-21 03:04:00,
2013-07-20 23:14:00,67.0,67.0,29.87,NNW,327,0.0,2.0,100,0.00,,,0.51,,2013-07-21 03:14:00,
2013-07-20 23:25:00,67.0,67.0,29.87,NNW,327,0.0,2.0,100,0.00,,,0.51,,2013-07-21 03:25:00,
2013-07-20 23:36:00,67.0,67.0,29.87,NNW,327,0.0,2.0,100,0.00,,,0.51,,2013-07-21 03:36:00,
2013-07-20 23:44:00,67.0,67.0,29.87,NNW,327,0.0,0.0,100,0.00,,,0.51,,2013-07-21 03:44:00,
2013-07-20 23:55:00,67.0,67.0,29.88,NNW,327,0.0,1.0,100,0.00,,,0.51,,2013-07-21 03:55:00,